sensor_id;sensor_type;location;lat;lon;timestamp;P1;durP1;ratioP1;P2;durP2;ratioP2
46399;SDS011;32104;50.838;4.388;2022-12-11T00:00:45;19.58;;;7.20;;
46399;SDS011;32104;50.838;4.388;2022-12-11T00:03:10;21.77;;;7.22;;
46399;SDS011;32104;50.838;4.388;2022-12-11T00:05:39;23.42;;;8.13;;
46399;SDS011;32104;50.838;4.388;2022-12-11T00:14:42;22.02;;;7.55;;
46399;SDS011;32104;50.838;4.388;2022-12-11T00:17:13;20.38;;;7.18;;
46399;SDS011;32104;50.838;4.388;2022-12-11T00:19:39;21.85;;;7.65;;
46399;SDS011;32104;50.838;4.388;2022-12-11T00:22:05;21.58;;;7.43;;
46399;SDS011;32104;50.838;4.388;2022-12-11T00:24:57;20.38;;;8.73;;
46399;SDS011;32104;50.838;4.388;2022-12-11T00:27:23;21.27;;;7.07;;
46399;SDS011;32104;50.838;4.388;2022-12-11T00:36:32;28.52;;;8.23;;
46399;SDS011;32104;50.838;4.388;2022-12-11T00:42:24;20.60;;;6.70;;
46399;SDS011;32104;50.838;4.388;2022-12-11T00:45:10;24.75;;;7.93;;
46399;SDS011;32104;50.838;4.388;2022-12-11T00:47:41;23.00;;;7.70;;
46399;SDS011;32104;50.838;4.388;2022-12-11T00:50:11;25.95;;;8.32;;
46399;SDS011;32104;50.838;4.388;2022-12-11T00:52:57;22.73;;;7.30;;
46399;SDS011;32104;50.838;4.388;2022-12-11T00:55:24;22.73;;;8.15;;
46399;SDS011;32104;50.838;4.388;2022-12-11T00:57:52;26.92;;;7.65;;
46399;SDS011;32104;50.838;4.388;2022-12-11T01:00:19;23.98;;;8.88;;
46399;SDS011;32104;50.838;4.388;2022-12-11T01:02:45;23.00;;;7.88;;
46399;SDS011;32104;50.838;4.388;2022-12-11T01:05:10;24.60;;;9.05;;
46399;SDS011;32104;50.838;4.388;2022-12-11T01:14:25;29.05;;;8.48;;
46399;SDS011;32104;50.838;4.388;2022-12-11T01:16:57;22.73;;;8.38;;
46399;SDS011;32104;50.838;4.388;2022-12-11T01:19:25;23.88;;;7.78;;
46399;SDS011;32104;50.838;4.388;2022-12-11T01:21:52;23.27;;;9.68;;
46399;SDS011;32104;50.838;4.388;2022-12-11T01:24:21;25.67;;;8.60;;
46399;SDS011;32104;50.838;4.388;2022-12-11T01:26:56;24.45;;;7.85;;
46399;SDS011;32104;50.838;4.388;2022-12-11T01:29:45;22.17;;;8.25;;
46399;SDS011;32104;50.838;4.388;2022-12-11T01:32:15;26.70;;;8.55;;
46399;SDS011;32104;50.838;4.388;2022-12-11T01:34:44;31.23;;;9.57;;
46399;SDS011;32104;50.838;4.388;2022-12-11T01:37:10;23.48;;;8.60;;
46399;SDS011;32104;50.838;4.388;2022-12-11T01:39:35;23.05;;;8.27;;
46399;SDS011;32104;50.838;4.388;2022-12-11T01:42:23;27.42;;;9.45;;
46399;SDS011;32104;50.838;4.388;2022-12-11T01:47:50;25.85;;;8.50;;
46399;SDS011;32104;50.838;4.388;2022-12-11T01:50:22;28.67;;;8.50;;
46399;SDS011;32104;50.838;4.388;2022-12-11T01:53:14;22.50;;;7.82;;
46399;SDS011;32104;50.838;4.388;2022-12-11T01:55:43;23.02;;;8.00;;
46399;SDS011;32104;50.838;4.388;2022-12-11T01:58:15;29.77;;;8.50;;
46399;SDS011;32104;50.838;4.388;2022-12-11T02:01:02;26.10;;;8.80;;
46399;SDS011;32104;50.838;4.388;2022-12-11T02:03:29;31.50;;;10.27;;
46399;SDS011;32104;50.838;4.388;2022-12-11T02:05:58;26.20;;;9.60;;
46399;SDS011;32104;50.838;4.388;2022-12-11T02:08:24;24.00;;;8.70;;
46399;SDS011;32104;50.838;4.388;2022-12-11T02:11:10;23.65;;;8.73;;
46399;SDS011;32104;50.838;4.388;2022-12-11T02:14:01;22.02;;;8.07;;
46399;SDS011;32104;50.838;4.388;2022-12-11T02:19:38;28.55;;;9.43;;
46399;SDS011;32104;50.838;4.388;2022-12-11T02:28:17;33.67;;;9.07;;
46399;SDS011;32104;50.838;4.388;2022-12-11T02:30:57;26.50;;;8.88;;
46399;SDS011;32104;50.838;4.388;2022-12-11T02:36:34;22.65;;;9.13;;
46399;SDS011;32104;50.838;4.388;2022-12-11T02:39:03;32.28;;;9.00;;
46399;SDS011;32104;50.838;4.388;2022-12-11T02:41:31;27.70;;;8.93;;
46399;SDS011;32104;50.838;4.388;2022-12-11T02:43:58;28.08;;;8.45;;
46399;SDS011;32104;50.838;4.388;2022-12-11T02:46:32;25.90;;;9.10;;
46399;SDS011;32104;50.838;4.388;2022-12-11T02:48:59;32.47;;;9.98;;
46399;SDS011;32104;50.838;4.388;2022-12-11T02:51:31;27.40;;;8.38;;
46399;SDS011;32104;50.838;4.388;2022-12-11T02:54:00;27.33;;;8.18;;
46399;SDS011;32104;50.838;4.388;2022-12-11T02:56:51;30.97;;;10.37;;
46399;SDS011;32104;50.838;4.388;2022-12-11T02:59:29;24.70;;;8.68;;
46399;SDS011;32104;50.838;4.388;2022-12-11T03:02:03;25.73;;;8.18;;
46399;SDS011;32104;50.838;4.388;2022-12-11T03:04:30;23.55;;;9.00;;
46399;SDS011;32104;50.838;4.388;2022-12-11T03:06:58;28.48;;;9.88;;
46399;SDS011;32104;50.838;4.388;2022-12-11T03:09:45;24.50;;;9.05;;
46399;SDS011;32104;50.838;4.388;2022-12-11T03:12:13;27.88;;;9.82;;
46399;SDS011;32104;50.838;4.388;2022-12-11T03:14:44;23.00;;;9.15;;
46399;SDS011;32104;50.838;4.388;2022-12-11T03:17:20;33.67;;;10.18;;
46399;SDS011;32104;50.838;4.388;2022-12-11T03:20:15;30.38;;;10.13;;
46399;SDS011;32104;50.838;4.388;2022-12-11T03:23:03;29.42;;;9.25;;
46399;SDS011;32104;50.838;4.388;2022-12-11T03:25:42;33.50;;;10.32;;
46399;SDS011;32104;50.838;4.388;2022-12-11T03:31:22;31.33;;;9.93;;
46399;SDS011;32104;50.838;4.388;2022-12-11T03:33:50;33.00;;;11.32;;
46399;SDS011;32104;50.838;4.388;2022-12-11T03:36:24;32.90;;;10.32;;
46399;SDS011;32104;50.838;4.388;2022-12-11T03:39:02;39.38;;;12.50;;
46399;SDS011;32104;50.838;4.388;2022-12-11T03:41:33;31.33;;;9.98;;
46399;SDS011;32104;50.838;4.388;2022-12-11T03:44:07;42.65;;;12.07;;
46399;SDS011;32104;50.838;4.388;2022-12-11T03:46:52;28.02;;;9.38;;
46399;SDS011;32104;50.838;4.388;2022-12-11T03:49:20;30.73;;;10.25;;
46399;SDS011;32104;50.838;4.388;2022-12-11T03:52:03;45.20;;;12.70;;
46399;SDS011;32104;50.838;4.388;2022-12-11T03:54:35;31.05;;;11.95;;
46399;SDS011;32104;50.838;4.388;2022-12-11T04:00:04;35.35;;;11.95;;
46399;SDS011;32104;50.838;4.388;2022-12-11T04:02:39;31.90;;;11.27;;
46399;SDS011;32104;50.838;4.388;2022-12-11T04:05:36;34.55;;;11.18;;
46399;SDS011;32104;50.838;4.388;2022-12-11T04:08:02;48.45;;;11.73;;
46399;SDS011;32104;50.838;4.388;2022-12-11T04:10:36;36.40;;;11.23;;
46399;SDS011;32104;50.838;4.388;2022-12-11T04:13:19;32.42;;;11.85;;
46399;SDS011;32104;50.838;4.388;2022-12-11T04:15:47;37.15;;;13.13;;
46399;SDS011;32104;50.838;4.388;2022-12-11T04:18:13;31.95;;;12.05;;
46399;SDS011;32104;50.838;4.388;2022-12-11T04:21:00;32.08;;;11.70;;
46399;SDS011;32104;50.838;4.388;2022-12-11T04:23:45;33.72;;;11.95;;
46399;SDS011;32104;50.838;4.388;2022-12-11T04:26:31;40.47;;;11.30;;
46399;SDS011;32104;50.838;4.388;2022-12-11T04:29:03;40.85;;;11.85;;
46399;SDS011;32104;50.838;4.388;2022-12-11T04:31:39;32.55;;;10.68;;
46399;SDS011;32104;50.838;4.388;2022-12-11T04:34:15;33.08;;;10.48;;
46399;SDS011;32104;50.838;4.388;2022-12-11T04:36:41;38.78;;;11.85;;
46399;SDS011;32104;50.838;4.388;2022-12-11T04:39:13;32.72;;;11.18;;
46399;SDS011;32104;50.838;4.388;2022-12-11T04:41:39;40.63;;;12.20;;
46399;SDS011;32104;50.838;4.388;2022-12-11T04:44:06;39.47;;;11.48;;
46399;SDS011;32104;50.838;4.388;2022-12-11T04:46:32;44.67;;;10.88;;
46399;SDS011;32104;50.838;4.388;2022-12-11T04:48:58;34.45;;;10.55;;
46399;SDS011;32104;50.838;4.388;2022-12-11T04:51:24;39.30;;;13.23;;
46399;SDS011;32104;50.838;4.388;2022-12-11T04:53:53;31.13;;;10.20;;
46399;SDS011;32104;50.838;4.388;2022-12-11T04:56:20;36.20;;;10.77;;
46399;SDS011;32104;50.838;4.388;2022-12-11T04:58:50;34.17;;;12.75;;
46399;SDS011;32104;50.838;4.388;2022-12-11T05:01:17;34.35;;;10.55;;
46399;SDS011;32104;50.838;4.388;2022-12-11T05:03:48;39.28;;;11.50;;
46399;SDS011;32104;50.838;4.388;2022-12-11T05:06:15;35.53;;;10.82;;
46399;SDS011;32104;50.838;4.388;2022-12-11T05:08:43;36.85;;;11.77;;
46399;SDS011;32104;50.838;4.388;2022-12-11T05:11:10;32.10;;;11.95;;
46399;SDS011;32104;50.838;4.388;2022-12-11T05:13:39;37.80;;;11.20;;
46399;SDS011;32104;50.838;4.388;2022-12-11T05:16:07;30.95;;;10.82;;
46399;SDS011;32104;50.838;4.388;2022-12-11T05:18:35;35.58;;;11.15;;
46399;SDS011;32104;50.838;4.388;2022-12-11T05:21:01;29.95;;;10.93;;
46399;SDS011;32104;50.838;4.388;2022-12-11T05:23:33;34.30;;;11.50;;
46399;SDS011;32104;50.838;4.388;2022-12-11T05:26:01;32.58;;;11.13;;
46399;SDS011;32104;50.838;4.388;2022-12-11T05:28:34;35.38;;;10.90;;
46399;SDS011;32104;50.838;4.388;2022-12-11T05:31:03;32.03;;;10.75;;
46399;SDS011;32104;50.838;4.388;2022-12-11T05:33:34;38.67;;;12.25;;
46399;SDS011;32104;50.838;4.388;2022-12-11T05:36:00;32.38;;;10.82;;
46399;SDS011;32104;50.838;4.388;2022-12-11T05:38:26;34.13;;;10.75;;
46399;SDS011;32104;50.838;4.388;2022-12-11T05:40:56;30.23;;;10.85;;
46399;SDS011;32104;50.838;4.388;2022-12-11T05:43:44;36.30;;;10.85;;
46399;SDS011;32104;50.838;4.388;2022-12-11T05:48:59;36.75;;;11.63;;
46399;SDS011;32104;50.838;4.388;2022-12-11T05:51:26;37.97;;;11.57;;
46399;SDS011;32104;50.838;4.388;2022-12-11T05:53:54;35.55;;;11.27;;
46399;SDS011;32104;50.838;4.388;2022-12-11T05:56:22;37.22;;;12.20;;
46399;SDS011;32104;50.838;4.388;2022-12-11T05:58:52;41.20;;;11.85;;
46399;SDS011;32104;50.838;4.388;2022-12-11T06:01:20;33.50;;;12.18;;
46399;SDS011;32104;50.838;4.388;2022-12-11T06:04:07;38.00;;;11.43;;
46399;SDS011;32104;50.838;4.388;2022-12-11T06:06:37;36.00;;;11.13;;
46399;SDS011;32104;50.838;4.388;2022-12-11T06:09:04;33.83;;;11.73;;
46399;SDS011;32104;50.838;4.388;2022-12-11T06:11:31;38.13;;;12.40;;
46399;SDS011;32104;50.838;4.388;2022-12-11T06:13:59;37.42;;;12.02;;
46399;SDS011;32104;50.838;4.388;2022-12-11T06:16:26;34.65;;;12.13;;
46399;SDS011;32104;50.838;4.388;2022-12-11T06:19:02;35.63;;;11.43;;
46399;SDS011;32104;50.838;4.388;2022-12-11T06:21:31;33.60;;;11.48;;
46399;SDS011;32104;50.838;4.388;2022-12-11T06:24:00;39.83;;;11.13;;
46399;SDS011;32104;50.838;4.388;2022-12-11T06:26:27;32.80;;;11.68;;
46399;SDS011;32104;50.838;4.388;2022-12-11T06:28:53;35.38;;;10.98;;
46399;SDS011;32104;50.838;4.388;2022-12-11T06:31:20;40.22;;;12.48;;
46399;SDS011;32104;50.838;4.388;2022-12-11T06:33:46;32.00;;;11.85;;
46399;SDS011;32104;50.838;4.388;2022-12-11T06:36:13;30.73;;;10.82;;
46399;SDS011;32104;50.838;4.388;2022-12-11T06:38:42;38.58;;;11.70;;
46399;SDS011;32104;50.838;4.388;2022-12-11T06:41:08;41.58;;;10.70;;
46399;SDS011;32104;50.838;4.388;2022-12-11T06:43:34;41.20;;;12.45;;
46399;SDS011;32104;50.838;4.388;2022-12-11T06:46:06;35.60;;;11.65;;
46399;SDS011;32104;50.838;4.388;2022-12-11T06:48:36;39.40;;;12.77;;
46399;SDS011;32104;50.838;4.388;2022-12-11T06:51:06;34.13;;;11.15;;
46399;SDS011;32104;50.838;4.388;2022-12-11T06:53:36;34.47;;;10.73;;
46399;SDS011;32104;50.838;4.388;2022-12-11T06:56:06;31.95;;;10.27;;
46399;SDS011;32104;50.838;4.388;2022-12-11T06:58:36;41.65;;;12.55;;
46399;SDS011;32104;50.838;4.388;2022-12-11T07:01:03;38.30;;;12.18;;
46399;SDS011;32104;50.838;4.388;2022-12-11T07:03:29;37.05;;;11.23;;
46399;SDS011;32104;50.838;4.388;2022-12-11T07:06:01;37.88;;;12.18;;
46399;SDS011;32104;50.838;4.388;2022-12-11T07:08:30;32.70;;;11.20;;
46399;SDS011;32104;50.838;4.388;2022-12-11T07:13:32;33.03;;;12.23;;
46399;SDS011;32104;50.838;4.388;2022-12-11T07:16:08;32.38;;;11.27;;
46399;SDS011;32104;50.838;4.388;2022-12-11T07:18:39;38.90;;;11.30;;
46399;SDS011;32104;50.838;4.388;2022-12-11T07:21:09;36.00;;;11.93;;
46399;SDS011;32104;50.838;4.388;2022-12-11T07:23:36;34.30;;;11.65;;
46399;SDS011;32104;50.838;4.388;2022-12-11T07:26:05;39.65;;;11.43;;
46399;SDS011;32104;50.838;4.388;2022-12-11T07:28:42;34.63;;;11.20;;
46399;SDS011;32104;50.838;4.388;2022-12-11T07:31:16;40.42;;;10.93;;
46399;SDS011;32104;50.838;4.388;2022-12-11T07:33:47;36.38;;;12.02;;
46399;SDS011;32104;50.838;4.388;2022-12-11T07:36:20;35.35;;;11.63;;
46399;SDS011;32104;50.838;4.388;2022-12-11T07:38:46;34.45;;;10.73;;
46399;SDS011;32104;50.838;4.388;2022-12-11T07:41:13;35.20;;;10.63;;
46399;SDS011;32104;50.838;4.388;2022-12-11T07:43:40;38.03;;;12.20;;
46399;SDS011;32104;50.838;4.388;2022-12-11T07:46:10;29.75;;;10.20;;
46399;SDS011;32104;50.838;4.388;2022-12-11T07:48:39;33.83;;;10.52;;
46399;SDS011;32104;50.838;4.388;2022-12-11T07:51:12;35.33;;;11.80;;
46399;SDS011;32104;50.838;4.388;2022-12-11T07:53:49;35.13;;;11.00;;
46399;SDS011;32104;50.838;4.388;2022-12-11T07:56:15;34.38;;;10.88;;
46399;SDS011;32104;50.838;4.388;2022-12-11T07:58:47;37.15;;;11.88;;
46399;SDS011;32104;50.838;4.388;2022-12-11T08:01:27;38.97;;;11.35;;
46399;SDS011;32104;50.838;4.388;2022-12-11T08:04:12;36.80;;;11.27;;
46399;SDS011;32104;50.838;4.388;2022-12-11T08:06:40;25.85;;;9.38;;
46399;SDS011;32104;50.838;4.388;2022-12-11T08:09:07;29.55;;;10.27;;
46399;SDS011;32104;50.838;4.388;2022-12-11T08:11:37;30.88;;;10.68;;
46399;SDS011;32104;50.838;4.388;2022-12-11T08:14:03;29.17;;;11.05;;
46399;SDS011;32104;50.838;4.388;2022-12-11T08:16:30;32.55;;;10.82;;
46399;SDS011;32104;50.838;4.388;2022-12-11T08:18:56;36.85;;;10.73;;
46399;SDS011;32104;50.838;4.388;2022-12-11T08:21:26;28.17;;;9.13;;
46399;SDS011;32104;50.838;4.388;2022-12-11T08:23:55;41.05;;;11.70;;
46399;SDS011;32104;50.838;4.388;2022-12-11T08:26:28;33.50;;;10.35;;
46399;SDS011;32104;50.838;4.388;2022-12-11T08:28:55;32.08;;;10.48;;
46399;SDS011;32104;50.838;4.388;2022-12-11T08:31:22;26.02;;;9.73;;
46399;SDS011;32104;50.838;4.388;2022-12-11T08:33:48;27.10;;;9.60;;
46399;SDS011;32104;50.838;4.388;2022-12-11T08:36:24;35.58;;;11.02;;
46399;SDS011;32104;50.838;4.388;2022-12-11T08:38:50;32.90;;;11.68;;
46399;SDS011;32104;50.838;4.388;2022-12-11T08:41:19;34.35;;;10.90;;
46399;SDS011;32104;50.838;4.388;2022-12-11T08:43:52;29.77;;;10.65;;
46399;SDS011;32104;50.838;4.388;2022-12-11T08:46:23;31.33;;;10.32;;
46399;SDS011;32104;50.838;4.388;2022-12-11T08:48:53;34.78;;;10.48;;
46399;SDS011;32104;50.838;4.388;2022-12-11T08:51:20;32.67;;;10.95;;
46399;SDS011;32104;50.838;4.388;2022-12-11T08:53:49;31.38;;;9.57;;
46399;SDS011;32104;50.838;4.388;2022-12-11T08:56:17;33.63;;;9.43;;
46399;SDS011;32104;50.838;4.388;2022-12-11T08:58:47;31.23;;;9.95;;
46399;SDS011;32104;50.838;4.388;2022-12-11T09:01:20;38.97;;;9.15;;
46399;SDS011;32104;50.838;4.388;2022-12-11T09:03:51;27.45;;;9.15;;
46399;SDS011;32104;50.838;4.388;2022-12-11T09:06:19;26.88;;;9.15;;
